G7ITT Weather Reports


Display with metric or nautical units.
time (UTC)temp
F
wind
direction
speed
MPH
gust
MPH
rain 1hr
in
rain 24hr
in
rain mn
in
humidity
%
barometer
mb
20220527163004 54 313 1.0 10.0 0.00 0.00 0.00 70 1023.9
20220527162004 55 314 2.0 5.0 0.00 0.00 0.00 70 1023.7
20220527161004 55 312 1.0 8.0 0.00 0.00 0.00 68 1023.7
20220527160004 55 313 1.0 8.0 0.00 0.00 0.00 68 1023.6
20220527155004 55 322 1.0 4.0 0.00 0.00 0.00 69 1023.7
20220527154004 55 303 0.0 5.0 0.00 0.00 0.00 69 1023.6
20220527153004 55 28 0.0 3.0 0.00 0.00 0.00 69 1023.6
20220527152004 56 312 1.0 9.0 0.00 0.00 0.00 68 1023.5
20220527151004 56 317 1.0 8.0 0.00 0.00 0.00 68 1023.4
20220527150004 56 316 2.0 9.0 0.00 0.00 0.00 67 1023.3
20220527145004 57 319 2.0 8.0 0.00 0.00 0.00 63 1023.3
20220527144004 57 311 3.0 9.0 0.00 0.00 0.00 64 1023.0
20220527143004 59 311 3.0 11.0 0.00 0.00 0.00 65 1023.0
20220527142004 56 313 2.0 9.0 0.00 0.00 0.00 68 1022.9
20220527141005 56 314 3.0 8.0 0.00 0.00 0.00 66 1022.9
20220527140004 57 313 2.0 11.0 0.00 0.00 0.00 64 1022.8
20220527135004 59 314 1.0 7.0 0.00 0.00 0.00 63 1022.9
20220527134004 56 326 2.0 9.0 0.00 0.00 0.00 66 1023.0
20220527133005 56 310 1.0 5.0 0.00 0.00 0.00 66 1023.0
20220527132004 56 320 1.0 8.0 0.00 0.00 0.00 65 1022.9
20220527131004 57 313 2.0 10.0 0.00 0.00 0.00 65 1022.8
20220527130003 58 317 1.0 9.0 0.00 0.00 0.00 66 1022.8
20220527125003 56 317 1.0 5.0 0.00 0.00 0.00 68 1022.7
20220527124003 56 316 3.0 8.0 0.00 0.00 0.00 67 1022.6
20220527123003 58 314 2.0 9.0 0.00 0.00 0.00 66 1022.4
20220527122003 57 317 2.0 9.0 0.00 0.00 0.00 69 1022.4
20220527121002 58 315 2.0 8.0 0.00 0.00 0.00 69 1022.5
20220527120003 57 334 2.0 8.0 0.00 0.01 0.00 68 1022.5
20220527115003 55 311 4.0 9.0 0.00 0.01 0.00 68 1022.4
20220527114003 56 311 4.0 14.0 0.00 0.01 0.00 67 1022.1
20220527113003 56 325 2.0 6.0 0.00 0.03 0.00 69 1022.0
20220527112002 56 324 3.0 10.0 0.00 0.07 0.00 69 1022.1
20220527111002 57 325 4.0 9.0 0.00 0.09 0.00 69 1022.0
20220527110003 57 320 3.0 12.0 0.00 0.09 0.00 70 1021.8
20220527105003 57 325 3.0 10.0 0.00 0.09 0.00 71 1022.0
20220527104002 55 312 2.0 9.0 0.00 0.12 0.00 73 1022.0
20220527103003 55 315 2.0 8.0 0.00 0.14 0.00 76 1022.2
20220527102003 53 327 4.0 9.0 0.00 0.14 0.00 75 1022.1
20220527101003 53 315 4.0 14.0 0.00 0.14 0.00 75 1021.9
20220527100003 53 315 1.0 13.0 0.00 0.14 0.00 74 1021.8
20220527095003 54 309 2.0 7.0 0.00 0.14 0.00 75 1021.7
20220527094003 54 322 2.0 9.0 0.00 0.14 0.00 73 1021.7
20220527093003 52 323 3.0 8.0 0.00 0.14 0.00 74 1021.5
20220527092003 53 323 4.0 9.0 0.00 0.14 0.00 74 1021.5
20220527091003 54 319 3.0 8.0 0.00 0.14 0.00 73 1021.4
20220527090003 52 322 3.0 8.0 0.00 0.14 0.00 75 1021.3
20220527085003 55 340 4.0 10.0 0.00 0.14 0.00 72 1021.1
20220527084002 55 318 5.0 14.0 0.00 0.14 0.00 73 1020.9
20220527083003 54 322 4.0 10.0 0.00 0.14 0.00 74 1020.9
20220527082003 54 335 5.0 10.0 0.00 0.14 0.00 73 1020.8
20220527081003 54 320 4.0 11.0 0.00 0.14 0.00 72 1020.8
20220527080003 53 330 3.0 9.0 0.00 0.14 0.00 75 1020.7
20220527075003 52 318 3.0 8.0 0.00 0.14 0.00 76 1020.7
20220527074003 51 319 3.0 6.0 0.00 0.15 0.00 76 1020.8
20220527073003 50 319 3.0 8.0 0.00 0.15 0.00 77 1020.8
20220527072003 50 312 2.0 8.0 0.00 0.15 0.00 76 1020.9
20220527071003 50 320 1.0 9.0 0.00 0.15 0.00 77 1020.8
20220527070003 49 333 1.0 4.0 0.00 0.15 0.00 78 1020.7
20220527065002 49 321 2.0 5.0 0.00 0.15 0.00 78 1020.6
20220527064003 50 312 3.0 9.0 0.00 0.15 0.00 77 1020.5
20220527063003 49 330 2.0 11.0 0.00 0.15 0.00 78 1020.6
20220527062003 49 315 1.0 6.0 0.00 0.15 0.00 78 1020.4
20220527061003 49 4 0.0 6.0 0.00 0.15 0.00 78 1020.3
20220527060003 48 316 1.0 4.0 0.00 0.15 0.00 78 1020.1
20220527055003 48 324 1.0 7.0 0.00 0.15 0.00 78 1019.9
20220527054003 48 334 1.0 5.0 0.00 0.15 0.00 77 1019.9
20220527053003 48 318 1.0 6.0 0.00 0.15 0.00 78 1020.0
20220527052003 48 329 0.0 6.0 0.00 0.15 0.00 78 1019.9
20220527051003 48 320 0.0 4.0 0.00 0.15 0.00 79 1019.9
20220527050003 47 332 0.0 4.0 0.00 0.15 0.00 79 1019.8
20220527045003 47 0 1.0 0.0 0.00 0.15 0.00 79 1019.7
20220527044003 47 319 2.0 9.0 0.00 0.15 0.00 78 1019.5
20220527043003 48 320 1.0 5.0 0.00 0.15 0.00 78 1019.6
20220527042003 48 299 0.0 6.0 0.00 0.15 0.00 78 1019.7
20220527041003 47 350 0.0 4.0 0.00 0.15 0.00 78 1019.6
20220527040003 47 326 0.0 4.0 0.00 0.15 0.00 78 1019.5
20220527035003 47 0 0.0 0.0 0.00 0.15 0.00 78 1019.6
20220527034003 47 0 0.0 0.0 0.00 0.15 0.00 78 1019.6
20220527033003 47 326 0.0 4.0 0.00 0.15 0.00 78 1019.6
20220527032003 47 359 0.0 7.0 0.00 0.15 0.00 78 1019.6
20220527031003 48 311 1.0 6.0 0.00 0.15 0.00 77 1019.5
20220527030003 48 316 1.0 5.0 0.00 0.15 0.00 77 1019.5
20220527025003 48 318 1.0 5.0 0.00 0.15 0.00 77 1019.5
20220527024003 48 344 0.0 8.0 0.00 0.15 0.00 77 1019.5
20220527023003 48 326 0.0 2.0 0.00 0.15 0.00 77 1019.5
20220527022003 48 318 1.0 6.0 0.00 0.15 0.00 76 1019.5
20220527021003 48 342 0.0 7.0 0.00 0.15 0.00 76 1019.4
20220527020003 48 21 0.0 3.0 0.00 0.15 0.00 78 1019.3
20220527015003 47 0 0.0 0.0 0.00 0.15 0.00 78 1019.2
20220527014003 47 0 0.0 0.0 0.00 0.15 0.00 77 1019.2
20220527013003 48 322 0.0 3.0 0.00 0.15 0.00 76 1019.0
20220527012003 47 322 0.0 3.0 0.00 0.15 0.00 77 1019.0
20220527011003 48 0 0.0 0.0 0.00 0.15 0.00 76 1019.2
20220527010003 48 321 0.0 5.0 0.00 0.15 0.00 76 1019.0
20220527005003 48 323 0.0 1.0 0.00 0.15 0.00 78 1019.0
20220527004004 47 323 0.0 4.0 0.00 0.15 0.00 79 1019.0
20220527003003 46 0 0.0 0.0 0.00 0.15 0.00 79 1018.9
20220527002003 46 0 0.0 0.0 0.00 0.15 0.00 80 1018.9
20220527001003 45 0 0.0 0.0 0.00 0.15 0.00 80 1018.8
20220527000003 44 0 0.0 0.0 0.00 0.15 0.00 80 1018.9
20220526235003 44 0 0.0 0.0 0.00 0.15 0.00 80 1018.7
20220526234004 44 0 0.0 0.0 0.00 0.15 0.00 80 1018.7
20220526233003 44 0 0.0 0.0 0.00 0.15 0.00 80 1018.7
20220526232003 44 0 0.0 0.0 0.00 0.15 0.00 80 1018.8
20220526231003 46 0 0.0 0.0 0.00 0.15 0.00 79 1018.7
20220526230005 46 0 0.0 0.0 0.00 0.15 0.00 79 1018.9
20220526225004 46 0 0.0 0.0 0.00 0.15 0.15 79 1018.8
20220526224003 47 0 0.0 0.0 0.00 0.15 0.15 78 1018.8
20220526223004 47 0 0.0 0.0 0.00 0.15 0.15 79 1018.8
20220526222003 46 0 0.0 0.0 0.00 0.15 0.15 79 1018.8
20220526221004 46 0 0.0 0.0 0.00 0.15 0.15 79 1018.7
20220526220004 46 0 0.0 0.0 0.00 0.15 0.15 79 1018.7
20220526215003 46 0 0.0 0.0 0.00 0.15 0.15 79 1018.6
20220526214004 47 0 0.0 0.0 0.00 0.15 0.15 79 1018.7
20220526213004 47 0 0.0 0.0 0.00 0.15 0.15 78 1018.5
20220526212003 48 0 0.0 0.0 0.00 0.15 0.15 77 1018.5
20220526211004 48 0 0.0 0.0 0.00 0.15 0.15 76 1018.5
20220526210003 50 313 0.0 4.0 0.00 0.15 0.15 75 1018.3
20220526205003 50 314 1.0 4.0 0.00 0.15 0.15 75 1018.3
20220526204003 50 314 1.0 5.0 0.00 0.15 0.15 75 1018.3
20220526203003 51 313 1.0 9.0 0.00 0.15 0.15 75 1018.1
20220526202003 51 1 0.0 2.0 0.00 0.15 0.15 75 1017.8
20220526201003 51 0 0.0 0.0 0.00 0.15 0.15 75 1017.8
20220526200003 51 0 0.0 0.0 0.00 0.15 0.15 74 1017.5
20220526195004 51 313 0.0 4.0 0.00 0.15 0.15 73 1017.3
20220526194004 52 0 0.0 0.0 0.00 0.15 0.15 73 1017.2
20220526193004 52 37 1.0 4.0 0.00 0.15 0.15 72 1017.1
20220526192004 52 309 1.0 7.0 0.00 0.15 0.15 71 1017.0
20220526191004 53 313 1.0 8.0 0.00 0.15 0.15 70 1016.9
20220526190004 53 314 1.0 7.0 0.00 0.15 0.15 70 1016.9
20220526185004 53 317 1.0 8.0 0.00 0.15 0.15 69 1016.7
20220526184004 54 34 0.0 1.0 0.00 0.15 0.15 68 1016.6
20220526183004 54 314 0.0 4.0 0.00 0.15 0.15 68 1016.6
20220526182004 54 320 1.0 4.0 0.00 0.15 0.15 68 1016.5
20220526181004 55 317 2.0 6.0 0.00 0.15 0.15 67 1016.4
20220526180004 55 310 2.0 9.0 0.00 0.15 0.15 65 1016.4
20220526175004 57 317 1.0 6.0 0.00 0.15 0.15 64 1016.5
20220526174004 56 313 1.0 6.0 0.00 0.15 0.15 67 1016.4
20220526173004 56 314 1.0 9.0 0.00 0.15 0.15 66 1016.2
20220526172004 58 315 2.0 8.0 0.00 0.15 0.15 63 1016.1
20220526171004 59 310 0.0 9.0 0.00 0.15 0.15 62 1016.0
20220526170004 58 317 1.0 5.0 0.00 0.15 0.15 67 1015.8
20220526165004 57 309 1.0 9.0 0.00 0.15 0.15 66 1015.9
20220526164004 57 314 1.0 10.0 0.00 0.15 0.15 67 1015.7